createdAt,value
2023-02-22T00:02:10.993Z,82.14
2023-02-22T00:04:41.560Z,81.93
2023-02-22T00:07:11.914Z,81.93
2023-02-22T00:09:42.399Z,81.98
2023-02-22T00:12:12.780Z,81.97
2023-02-22T00:14:43.243Z,82.02
2023-02-22T00:17:13.667Z,82.07
2023-02-22T00:19:44.063Z,82.12
2023-02-22T00:22:16.765Z,82.34
2023-02-22T00:24:48.336Z,82.36
2023-02-22T00:27:19.060Z,82.03
2023-02-22T00:29:49.612Z,81.96
2023-02-22T00:32:20.101Z,82.00
2023-02-22T00:34:54.675Z,82.09
2023-02-22T00:37:25.293Z,82.29
2023-02-22T00:39:55.866Z,82.55
2023-02-22T00:42:26.661Z,82.76
2023-02-22T00:44:58.284Z,83.08
2023-02-22T00:47:29.901Z,83.33
2023-02-22T00:50:01.315Z,83.72
2023-02-22T00:52:31.732Z,83.85
2023-02-22T00:55:02.273Z,83.99
2023-02-22T00:57:35.213Z,84.06
2023-02-22T01:00:11.823Z,84.09
2023-02-22T01:02:44.288Z,84.18
2023-02-22T01:05:17.571Z,84.26
2023-02-22T01:07:48.835Z,84.45
2023-02-22T01:10:22.123Z,84.65
2023-02-22T01:12:53.033Z,84.77
2023-02-22T01:15:40.568Z,84.50
2023-02-22T01:18:12.787Z,84.50
2023-02-22T01:20:48.128Z,84.49
2023-02-22T01:23:19.317Z,84.73
2023-02-22T01:25:49.696Z,85.01
2023-02-22T01:28:20.118Z,85.06
2023-02-22T01:30:56.159Z,85.12
2023-02-22T01:33:27.844Z,84.94
2023-02-22T01:35:59.671Z,84.65
2023-02-22T01:38:29.645Z,84.69
2023-02-22T01:41:00.898Z,84.65
2023-02-22T01:43:32.721Z,84.71
2023-02-22T01:46:04.999Z,84.65
2023-02-22T01:48:39.980Z,84.51
2023-02-22T01:51:13.437Z,84.44
2023-02-22T01:53:48.725Z,84.45
2023-02-22T01:56:20.547Z,84.38
2023-02-22T01:58:55.230Z,84.47
2023-02-22T02:01:26.679Z,84.69
2023-02-22T02:04:01.361Z,85.11
2023-02-22T02:06:34.860Z,85.23
2023-02-22T02:09:10.822Z,85.29
2023-02-22T02:11:42.914Z,85.43
2023-02-22T02:14:14.022Z,85.47
2023-02-22T02:16:47.662Z,85.63
2023-02-22T02:19:24.278Z,85.75
2023-02-22T02:22:11.571Z,85.79
2023-02-22T02:25:13.269Z,85.81
2023-02-22T02:27:59.198Z,85.77
2023-02-22T02:30:52.203Z,85.76
2023-02-22T02:33:24.692Z,86.09
2023-02-22T02:36:00.888Z,86.29
2023-02-22T02:38:35.583Z,86.33
2023-02-22T02:41:11.702Z,86.49
2023-02-22T02:43:47.919Z,86.78
2023-02-22T02:46:20.720Z,86.71
2023-02-22T02:48:56.800Z,86.68
2023-02-22T02:51:31.875Z,86.83
2023-02-22T02:54:04.462Z,86.95
2023-02-22T02:56:35.076Z,86.89
2023-02-22T02:59:19.397Z,86.90
2023-02-22T03:02:01.302Z,86.99
2023-02-22T03:04:43.549Z,87.37
2023-02-22T03:07:35.877Z,87.67
2023-02-22T03:10:29.339Z,87.78
2023-02-22T03:13:01.607Z,87.71
2023-02-22T03:15:39.949Z,87.71
2023-02-22T03:18:17.815Z,87.81
2023-02-22T03:20:54.285Z,88.20
2023-02-22T03:23:28.294Z,88.46
2023-02-22T03:26:02.833Z,88.78
2023-02-22T03:28:35.132Z,88.61
2023-02-22T03:31:10.289Z,88.68
2023-02-22T03:33:44.045Z,88.64
2023-02-22T03:36:20.426Z,88.36
2023-02-22T03:38:51.910Z,88.36
2023-02-22T03:41:25.267Z,88.64
2023-02-22T03:43:59.671Z,88.69
2023-02-22T03:46:30.678Z,88.46
2023-02-22T03:49:04.321Z,88.53
2023-02-22T03:57:37.804Z,88.78
2023-02-22T04:00:11.873Z,88.90
2023-02-22T04:02:47.524Z,89.00
2023-02-22T04:05:21.447Z,89.12
2023-02-22T04:07:51.920Z,88.98
2023-02-22T04:10:22.430Z,89.02
2023-02-22T04:12:53.364Z,89.14
2023-02-22T04:15:25.776Z,89.00
2023-02-22T04:18:15.175Z,88.89
2023-02-22T04:20:54.033Z,88.86
2023-02-22T04:23:39.565Z,88.82
2023-02-22T04:26:18.858Z,88.78
2023-02-22T04:29:01.233Z,88.67
2023-02-22T04:31:44.818Z,88.53
2023-02-22T04:34:23.099Z,88.72
2023-02-22T04:37:01.823Z,88.86
2023-02-22T04:39:40.760Z,88.97
2023-02-22T04:42:19.939Z,89.10
2023-02-22T04:44:57.734Z,88.98
2023-02-22T04:47:34.556Z,88.90
2023-02-22T04:50:13.975Z,88.80
2023-02-22T04:52:54.142Z,89.13
2023-02-22T04:55:35.192Z,89.24
2023-02-22T04:58:13.334Z,89.17
2023-02-22T05:00:49.691Z,89.22
2023-02-22T05:03:26.046Z,89.17
2023-02-22T05:06:04.590Z,89.10
2023-02-22T05:08:42.154Z,89.16
2023-02-22T05:11:20.994Z,89.30
2023-02-22T05:14:01.116Z,89.39
2023-02-22T05:16:40.563Z,89.46
2023-02-22T05:19:15.492Z,89.76
2023-02-22T05:21:51.434Z,90.14
2023-02-22T05:24:26.184Z,89.97
2023-02-22T05:27:04.240Z,90.14
2023-02-22T05:29:41.791Z,90.09
2023-02-22T05:32:21.701Z,89.96
2023-02-22T05:35:03.033Z,89.80
2023-02-22T05:37:46.784Z,89.79
2023-02-22T05:40:22.351Z,90.09
2023-02-22T05:53:54.941Z,90.45
2023-02-22T05:56:30.896Z,90.46
2023-02-22T05:59:04.849Z,90.60
2023-02-22T06:01:38.692Z,90.76
2023-02-22T06:04:14.511Z,90.74
2023-02-22T06:06:48.820Z,90.82
2023-02-22T06:09:24.136Z,90.86
2023-02-22T06:12:01.238Z,91.03
2023-02-22T06:14:35.115Z,91.11
2023-02-22T06:17:10.907Z,91.09
2023-02-22T06:19:51.242Z,91.00
2023-02-22T06:22:27.706Z,90.91
2023-02-22T06:25:04.252Z,90.82
2023-02-22T06:27:41.079Z,90.95
2023-02-22T06:37:19.215Z,91.43
2023-02-22T06:40:00.718Z,91.04
2023-02-22T06:42:36.610Z,90.90
2023-02-22T06:45:15.241Z,90.96
2023-02-22T06:47:52.988Z,91.06
2023-02-22T06:50:29.109Z,91.23
2023-02-22T06:53:03.563Z,91.36
2023-02-22T06:55:40.284Z,91.33
2023-02-22T06:58:14.572Z,91.16
2023-02-22T07:00:47.602Z,91.25
2023-02-22T07:03:19.455Z,91.21
2023-02-22T07:05:53.327Z,91.12
2023-02-22T07:08:27.434Z,91.25
2023-02-22T07:11:01.472Z,91.18
2023-02-22T07:13:35.630Z,91.06
2023-02-22T07:16:10.537Z,90.83
2023-02-22T07:18:47.378Z,90.88
2023-02-22T07:21:22.181Z,90.83
2023-02-22T07:23:59.580Z,90.67
2023-02-22T07:26:34.854Z,90.42
2023-02-22T07:29:08.495Z,90.21
2023-02-22T07:31:41.786Z,90.12
2023-02-22T07:34:16.362Z,89.97
2023-02-22T07:36:51.053Z,89.62
2023-02-22T07:39:24.514Z,89.18
2023-02-22T07:41:57.995Z,88.66
2023-02-22T07:44:32.482Z,88.57
2023-02-22T07:47:07.047Z,88.03
2023-02-22T07:49:42.504Z,87.30
2023-02-22T07:52:18.422Z,86.64
2023-02-22T07:54:52.722Z,85.51
2023-02-22T07:57:27.458Z,84.57
2023-02-22T08:00:00.328Z,83.96
2023-02-22T08:02:34.280Z,82.80
2023-02-22T08:05:08.540Z,82.27
2023-02-22T08:07:43.347Z,81.83
2023-02-22T08:10:19.710Z,81.48
2023-02-22T08:12:53.643Z,81.13
2023-02-22T08:15:29.491Z,80.57
2023-02-22T08:18:03.841Z,80.48
2023-02-22T08:20:36.462Z,80.31
2023-02-22T08:23:09.615Z,79.94
2023-02-22T08:25:42.312Z,79.76
2023-02-22T08:28:20.413Z,79.09
2023-02-22T08:30:55.079Z,79.48
2023-02-22T08:33:29.082Z,79.51
2023-02-22T08:36:02.336Z,78.96
2023-02-22T08:38:36.393Z,79.05
2023-02-22T08:41:11.311Z,78.65
2023-02-22T08:43:43.426Z,78.42
2023-02-22T08:46:16.315Z,78.90
2023-02-22T08:48:52.742Z,79.02
2023-02-22T08:51:26.286Z,79.01
2023-02-22T08:53:59.576Z,78.96
2023-02-22T08:56:32.443Z,79.00
2023-02-22T08:59:04.972Z,78.68
2023-02-22T09:01:38.220Z,78.93
2023-02-22T09:04:12.078Z,78.09
2023-02-22T09:06:48.827Z,78.21
2023-02-22T09:09:21.664Z,78.84
2023-02-22T09:11:55.093Z,78.75
2023-02-22T09:14:26.807Z,78.07
2023-02-22T09:16:58.322Z,77.67
2023-02-22T09:19:29.766Z,77.29
2023-02-22T09:22:03.286Z,76.88
2023-02-22T09:24:36.299Z,76.53
2023-02-22T09:27:07.665Z,76.41
2023-02-22T09:29:39.540Z,76.28
2023-02-22T09:32:11.178Z,76.53
2023-02-22T09:34:46.011Z,76.31
2023-02-22T09:37:20.336Z,75.80
2023-02-22T09:39:52.670Z,75.57
2023-02-22T09:42:29.734Z,74.97
2023-02-22T09:45:06.424Z,74.58
2023-02-22T09:47:46.828Z,74.14
2023-02-22T09:50:22.529Z,73.79
2023-02-22T09:52:58.244Z,73.45
2023-02-22T09:55:34.624Z,73.36
2023-02-22T09:58:07.727Z,73.67
2023-02-22T10:00:39.329Z,73.68
2023-02-22T10:03:23.690Z,73.43
2023-02-22T10:07:40.459Z,73.42
2023-02-22T10:10:17.459Z,72.36
2023-02-22T10:12:53.272Z,72.06
2023-02-22T10:15:48.673Z,71.74
2023-02-22T10:18:39.100Z,70.64
2023-02-22T10:21:17.345Z,70.95
2023-02-22T10:23:53.534Z,70.47
2023-02-22T10:26:28.472Z,69.91
2023-02-22T10:29:01.717Z,69.75
2023-02-22T10:31:34.900Z,69.12
2023-02-22T10:34:06.738Z,68.81
2023-02-22T10:36:39.220Z,67.56
2023-02-22T10:39:26.110Z,65.73
2023-02-22T10:42:05.675Z,65.29
2023-02-22T10:44:36.745Z,64.88
2023-02-22T10:47:10.056Z,63.64
2023-02-22T10:49:47.495Z,62.80
2023-02-22T10:52:23.663Z,61.85
2023-02-22T10:55:01.061Z,60.24
2023-02-22T10:57:35.538Z,59.48
2023-02-22T11:00:20.361Z,58.89
2023-02-22T11:02:55.979Z,57.67
2023-02-22T11:05:37.156Z,55.75
2023-02-22T11:08:23.831Z,55.70
2023-02-22T11:10:55.648Z,55.51
2023-02-22T11:13:32.391Z,54.48
2023-02-22T11:16:17.942Z,54.07
2023-02-22T11:18:49.324Z,53.58
2023-02-22T11:21:24.409Z,52.41
2023-02-22T11:24:04.245Z,52.28
2023-02-22T11:26:41.667Z,52.83
2023-02-22T11:29:21.494Z,52.61
2023-02-22T11:31:52.555Z,52.88
2023-02-22T11:34:42.994Z,52.44
2023-02-22T11:37:31.079Z,52.71
2023-02-22T11:40:13.030Z,52.68
2023-02-22T11:42:43.479Z,52.97
2023-02-22T11:45:17.198Z,52.30
2023-02-22T11:47:56.078Z,53.01
2023-02-22T11:50:30.919Z,53.54
2023-02-22T11:53:23.156Z,53.33
2023-02-22T11:56:02.260Z,52.96
2023-02-22T11:58:41.496Z,53.24
2023-02-22T12:01:17.420Z,53.10
2023-02-22T12:04:08.146Z,52.96
2023-02-22T12:06:45.452Z,53.30
2023-02-22T12:09:23.271Z,52.91
2023-02-22T12:12:02.569Z,51.85
2023-02-22T12:14:38.889Z,50.45
2023-02-22T12:17:23.373Z,50.21
2023-02-22T12:19:56.125Z,49.44
2023-02-22T12:22:28.918Z,48.79
2023-02-22T12:25:12.709Z,48.25
2023-02-22T12:27:46.896Z,46.76
2023-02-22T12:30:20.344Z,46.68
2023-02-22T12:32:54.167Z,46.19
2023-02-22T12:35:26.992Z,45.25
2023-02-22T12:38:04.050Z,45.22
2023-02-22T12:40:36.719Z,44.55
2023-02-22T12:43:16.534Z,44.16
2023-02-22T12:45:50.188Z,42.68
2023-02-22T12:48:31.449Z,43.26
2023-02-22T12:51:08.707Z,42.43
2023-02-22T12:53:41.269Z,42.72
2023-02-22T12:56:17.058Z,42.33
2023-02-22T12:58:54.084Z,42.11
2023-02-22T13:01:27.868Z,42.51
2023-02-22T13:04:02.109Z,42.95
2023-02-22T13:06:45.660Z,44.19
2023-02-22T13:09:41.730Z,45.08
2023-02-22T13:12:20.429Z,46.00
2023-02-22T13:15:01.597Z,47.20
2023-02-22T13:17:37.126Z,48.11
2023-02-22T13:20:13.331Z,49.15
2023-02-22T13:22:48.812Z,49.97
2023-02-22T13:25:24.585Z,50.65
2023-02-22T13:28:01.485Z,51.31
2023-02-22T13:30:39.240Z,51.83
2023-02-22T13:33:30.678Z,51.40
2023-02-22T13:36:14.756Z,51.56
2023-02-22T13:39:07.682Z,51.99
2023-02-22T13:41:55.128Z,52.43
2023-02-22T13:44:34.066Z,52.55
2023-02-22T13:47:34.345Z,52.70
2023-02-22T13:50:23.937Z,53.57
2023-02-22T13:52:55.672Z,54.30
2023-02-22T13:55:31.402Z,54.70
2023-02-22T13:58:04.692Z,54.92
2023-02-22T14:00:50.300Z,55.09
2023-02-22T14:03:40.735Z,55.32
2023-02-22T14:06:13.894Z,55.87
2023-02-22T14:08:49.295Z,55.97
2023-02-22T14:11:57.765Z,56.17
2023-02-22T14:14:28.321Z,56.45
2023-02-22T14:17:27.055Z,56.76
2023-02-22T14:20:21.757Z,57.06
2023-02-22T14:22:53.485Z,56.68
2023-02-22T14:25:43.070Z,56.67
2023-02-22T14:28:38.521Z,56.87
2023-02-22T14:31:17.447Z,56.69
2023-02-22T14:33:57.087Z,57.10
2023-02-22T14:36:30.263Z,57.57
2023-02-22T14:39:08.889Z,57.45
2023-02-22T14:41:40.783Z,57.78
2023-02-22T14:44:12.910Z,58.07
2023-02-22T14:46:44.853Z,58.23
2023-02-22T14:49:18.945Z,58.40
2023-02-22T14:51:55.405Z,58.48
2023-02-22T14:54:30.364Z,58.82
2023-02-22T14:57:14.929Z,59.14
2023-02-22T14:59:57.061Z,59.38
2023-02-22T15:02:27.641Z,59.35
2023-02-22T15:04:58.455Z,59.38
2023-02-22T15:07:31.106Z,59.35
2023-02-22T15:10:23.982Z,59.35
2023-02-22T15:13:09.788Z,59.31
2023-02-22T15:15:48.167Z,59.35
2023-02-22T15:18:24.549Z,59.56
2023-02-22T15:20:58.634Z,59.52
2023-02-22T15:23:33.247Z,59.69
2023-02-22T15:26:04.358Z,59.89
2023-02-22T15:28:36.565Z,60.08
2023-02-22T15:31:29.127Z,60.31
2023-02-22T15:34:02.699Z,60.57
2023-02-22T15:36:34.500Z,60.81
2023-02-22T15:39:08.529Z,60.76
2023-02-22T15:41:39.434Z,61.01
2023-02-22T15:44:23.669Z,61.09
2023-02-22T15:46:56.518Z,60.84
2023-02-22T15:49:28.923Z,60.86
2023-02-22T15:52:11.565Z,60.99
2023-02-22T15:54:47.177Z,61.08
2023-02-22T15:57:20.067Z,60.97
2023-02-22T15:59:50.212Z,61.35
2023-02-22T16:02:37.020Z,61.57
2023-02-22T16:05:11.638Z,61.78
2023-02-22T16:07:45.958Z,62.22
2023-02-22T16:10:29.909Z,62.35
2023-02-22T16:13:31.612Z,62.65
2023-02-22T16:16:06.037Z,63.02
2023-02-22T16:18:38.567Z,63.28
2023-02-22T16:21:13.027Z,63.51
2023-02-22T16:23:49.379Z,63.70
2023-02-22T16:26:29.256Z,63.91
2023-02-22T16:29:01.797Z,64.26
2023-02-22T16:31:34.681Z,64.47
2023-02-22T16:34:06.889Z,64.62
2023-02-22T16:36:43.071Z,64.90
2023-02-22T16:39:21.410Z,65.10
2023-02-22T16:41:52.983Z,65.40
2023-02-22T16:44:25.103Z,65.76
2023-02-22T16:47:13.343Z,66.15
2023-02-22T16:49:42.295Z,66.25
2023-02-22T16:52:13.211Z,66.63
2023-02-22T16:54:46.248Z,66.82
2023-02-22T16:57:21.315Z,67.13
2023-02-22T16:59:53.512Z,67.33
2023-02-22T17:02:24.020Z,67.62
2023-02-22T17:04:54.404Z,67.78
2023-02-22T17:07:30.543Z,67.99
2023-02-22T17:10:00.936Z,68.26
2023-02-22T17:12:32.674Z,68.40
2023-02-22T17:15:04.356Z,68.62
2023-02-22T17:17:34.746Z,68.70
2023-02-22T17:20:11.384Z,68.92
2023-02-22T17:22:43.119Z,69.08
2023-02-22T17:25:31.135Z,69.25
2023-02-22T17:28:01.584Z,69.56
2023-02-22T17:30:33.118Z,69.78
2023-02-22T17:33:05.864Z,69.94
2023-02-22T17:38:23.007Z,70.26
2023-02-22T17:40:54.827Z,70.34
2023-02-22T17:43:28.782Z,70.52
2023-02-22T17:45:59.633Z,70.62
2023-02-22T17:48:30.032Z,70.51
2023-02-22T17:51:00.412Z,70.55
2023-02-22T17:53:31.260Z,70.65
2023-02-22T17:56:01.645Z,70.76
2023-02-22T17:58:32.163Z,70.88
2023-02-22T18:01:03.128Z,70.91
2023-02-22T18:03:34.759Z,71.07
2023-02-22T18:06:06.050Z,71.00
2023-02-22T18:08:38.981Z,70.97
2023-02-22T18:11:08.001Z,71.11
2023-02-22T18:13:38.627Z,71.22
2023-02-22T18:16:10.055Z,71.37
2023-02-22T18:18:40.498Z,71.42
2023-02-22T18:21:11.041Z,71.50
2023-02-22T18:23:41.426Z,71.68
2023-02-22T18:26:17.073Z,71.63
2023-02-22T18:28:48.580Z,71.56
2023-02-22T18:31:20.508Z,71.55
2023-02-22T18:33:52.760Z,71.69
2023-02-22T18:36:24.382Z,71.76
2023-02-22T18:38:56.414Z,71.76
2023-02-22T18:41:27.336Z,71.85
2023-02-22T18:44:00.493Z,71.89
2023-02-22T18:46:30.942Z,72.03
2023-02-22T18:49:01.525Z,72.11
2023-02-22T18:51:33.028Z,72.08
2023-02-22T18:54:03.507Z,72.14
2023-02-22T18:56:34.172Z,72.17
2023-02-22T18:59:05.508Z,72.22
2023-02-22T19:01:38.742Z,72.32
2023-02-22T19:04:11.919Z,72.34
2023-02-22T19:06:43.081Z,72.30
2023-02-22T19:09:13.416Z,72.41
2023-02-22T19:11:46.463Z,72.36
2023-02-22T19:14:17.400Z,72.53
2023-02-22T19:16:49.105Z,72.53
2023-02-22T19:19:20.871Z,72.66
2023-02-22T19:21:51.647Z,72.61
2023-02-22T19:24:22.301Z,72.88
2023-02-22T19:26:57.316Z,72.79
2023-02-22T19:29:31.164Z,73.10
2023-02-22T19:32:02.685Z,73.12
2023-02-22T19:34:34.111Z,73.34
2023-02-22T19:37:05.085Z,73.40
2023-02-22T19:39:38.510Z,73.72
2023-02-22T19:42:10.195Z,73.96
2023-02-22T19:44:40.694Z,74.02
2023-02-22T19:47:11.203Z,73.88
2023-02-22T19:49:42.191Z,74.06
2023-02-22T19:52:12.719Z,74.28
2023-02-22T19:54:44.567Z,74.26
2023-02-22T19:57:15.121Z,74.29
2023-02-22T19:59:46.100Z,74.32
2023-02-22T20:02:16.508Z,74.43
2023-02-22T20:04:50.081Z,74.54
2023-02-22T20:07:20.509Z,74.76
2023-02-22T20:09:51.095Z,74.91
2023-02-22T20:12:21.668Z,74.96
2023-02-22T20:14:52.135Z,75.11
2023-02-22T20:17:22.485Z,75.21
2023-02-22T20:19:53.373Z,75.23
2023-02-22T20:22:24.285Z,75.35
2023-02-22T20:24:54.940Z,75.40
2023-02-22T20:27:25.703Z,75.47
2023-02-22T20:29:56.193Z,75.62
2023-02-22T20:32:28.531Z,75.72
2023-02-22T20:34:59.320Z,75.83
2023-02-22T20:37:29.998Z,75.90
2023-02-22T20:40:00.875Z,75.91
2023-02-22T20:42:31.312Z,75.98
2023-02-22T20:45:04.782Z,76.04
2023-02-22T20:47:35.628Z,76.20
2023-02-22T20:50:08.175Z,76.27
2023-02-22T20:52:38.762Z,76.47
2023-02-22T20:55:11.511Z,76.64
2023-02-22T20:57:42.008Z,76.87
2023-02-22T21:00:17.996Z,76.96
2023-02-22T21:02:48.664Z,77.07
2023-02-22T21:05:19.206Z,77.15
2023-02-22T21:07:49.532Z,77.33
2023-02-22T21:10:22.026Z,77.40
2023-02-22T21:12:53.251Z,77.50
2023-02-22T21:15:26.003Z,77.60
2023-02-22T21:17:57.340Z,77.77
2023-02-22T21:20:28.001Z,77.90
2023-02-22T21:23:01.843Z,77.85
2023-02-22T21:25:32.745Z,77.89
2023-02-22T21:28:03.366Z,77.78
2023-02-22T21:30:35.323Z,77.70
2023-02-22T21:33:06.728Z,77.77
2023-02-22T21:35:40.365Z,77.58
2023-02-22T21:38:14.311Z,77.47
2023-02-22T21:40:46.386Z,77.45
2023-02-22T21:43:17.385Z,77.45
2023-02-22T21:45:47.977Z,77.51
2023-02-22T21:48:18.487Z,77.48
2023-02-22T21:50:49.020Z,77.39
2023-02-22T21:53:19.663Z,77.30
2023-02-22T21:55:50.263Z,77.33
2023-02-22T21:58:21.615Z,77.35
2023-02-22T22:00:52.748Z,77.32
2023-02-22T22:03:24.584Z,77.46
2023-02-22T22:05:54.999Z,77.37
2023-02-22T22:08:27.495Z,77.37
2023-02-22T22:10:58.922Z,77.35
2023-02-22T22:13:29.381Z,77.26
2023-02-22T22:16:05.882Z,77.33
2023-02-22T22:18:37.192Z,77.42
2023-02-22T22:21:16.547Z,77.37
2023-02-22T22:23:47.997Z,77.39
2023-02-22T22:26:20.145Z,77.37
2023-02-22T22:28:52.847Z,77.27
2023-02-22T22:31:25.886Z,77.30
2023-02-22T22:33:57.252Z,77.34
2023-02-22T22:36:28.545Z,77.52
2023-02-22T22:38:58.932Z,77.52
2023-02-22T22:41:29.393Z,77.37
2023-02-22T22:43:59.752Z,77.38
2023-02-22T22:46:31.519Z,77.33
2023-02-22T22:49:01.992Z,77.30
2023-02-22T22:51:33.700Z,77.22
2023-02-22T22:54:05.550Z,77.22
2023-02-22T23:03:23.827Z,77.12
2023-02-22T23:05:54.480Z,77.03
2023-02-22T23:08:29.342Z,77.16
2023-02-22T23:10:59.759Z,77.07
2023-02-22T23:13:30.284Z,77.15
2023-02-22T23:16:01.950Z,77.06
2023-02-22T23:18:34.421Z,77.10
2023-02-22T23:21:05.423Z,77.16
2023-02-22T23:23:35.853Z,77.08
2023-02-22T23:26:11.710Z,77.16
2023-02-22T23:28:43.127Z,77.17
2023-02-22T23:31:15.411Z,77.08
2023-02-22T23:33:49.109Z,77.21
2023-02-22T23:36:20.515Z,77.15
2023-02-22T23:38:51.006Z,77.06
2023-02-22T23:41:24.894Z,77.13
2023-02-22T23:43:55.290Z,77.16
2023-02-22T23:46:27.000Z,77.16
2023-02-22T23:49:01.676Z,77.20
2023-02-22T23:51:39.226Z,77.11
2023-02-22T23:54:12.319Z,77.01
2023-02-22T23:56:47.059Z,77.07
2023-02-22T23:59:17.409Z,77.02
